Главная страница
METAR-TAF:

METAR-TAF

Аэропорты :

Понпеи, Микронезия

широта: 06-59N, долгота: 158-12E, высота над уровнем моря: 2 м

Текущие метеонаблюдения

Эта сводка был подготовлена 17 часа и 45 минут назад, в 02:56 UTC
Ветер 7 Узел от западно-северо-западный
Температура 31°C
Влажность 71%
Давление 1008 hPa
Видимость: 24.1 км
Отдельные облака на высоте 1800 фута, мощно-кучевые.
Рассеянная облачность на высоте 30000 фута

METAR: PTPN 240256Z 29007KT 15SM SCT018TCU BKN300 31/25 A2978 TCU SE-S

Время: 07:41 (20:41 UTC)

Прогноз

Эта сводка был подготовлена 15 часа и 8 минут назад, в 05:33 UTC
Прогноз действительный с 24-го 06 UTC до 25-го 06 UTC
Ветер 6 Узел переменных направлений
Видимость: 10 км
небольшая облачность на высоте 1800 фута

TAF: PTPN 240533Z 2406/2506 VRB06KT P6SM FEW018

Метеонаблюдения и прогнозы для более 4000 аэропортов (сводки METAR и TAF).

Имеющиеся станции представлены на карте желтыми и красными точками.

Чтобы увидеть название станции, наведите на нее мышь.

Затем щелкните, чтобы увидеть метеонаблюдения и метеопрогнозы.

Управление картой: чтобы увеличить масштаб, щелкните зеленые кнопки с черным крестиком; чтобы уменьшить масштаб, щелкните зеленую кнопку с тире; для просмотра соседних карт щелкайте зеленые стрелки.


METAR-TAF: